Time;durP1;ratioP1;P1;durP2;ratioP2;P2;SDS_P1;SDS_P2;PMS_P1;PMS_P2;Temp;Humidity;BMP_temperature;BMP_pressure;BME280_temperature;BME280_humidity;BME280_pressure;Samples;Min_cycle;Max_cycle;Signal;HPM_P1;HPM_P2
2022/02/17 00:01:41;;;;;;;4.32;2.00;;;2.90;99.90;;;;;;4964430;28;20118;-76
2022/02/17 00:04:06;;;;;;;5.43;2.40;;;2.70;99.90;;;;;;4965409;28;20114;-76
2022/02/17 00:06:32;;;;;;;4.68;3.10;;;2.70;99.90;;;;;;4968085;28;20098;-76
2022/02/17 00:08:57;;;;;;;3.75;2.35;;;2.70;99.90;;;;;;4972785;28;20098;-76
2022/02/17 00:11:23;;;;;;;4.90;2.40;;;2.90;99.90;;;;;;4973470;28;20031;-76
2022/02/17 00:13:49;;;;;;;5.28;2.17;;;2.80;99.90;;;;;;4973642;28;20089;-76
2022/02/17 00:16:16;;;;;;;3.90;2.10;;;2.70;99.90;;;;;;4972515;28;20073;-76
2022/02/17 00:18:42;;;;;;;6.28;2.30;;;2.60;99.90;;;;;;4972871;28;20053;-76
2022/02/17 00:21:07;;;;;;;5.00;2.33;;;2.60;99.90;;;;;;4972943;28;20460;-76
2022/02/17 00:23:33;;;;;;;5.70;2.83;;;2.70;99.90;;;;;;4972719;28;20094;-76
2022/02/17 00:25:59;;;;;;;5.43;2.80;;;2.70;99.90;;;;;;4972630;28;20034;-76
2022/02/17 00:28:24;;;;;;;4.30;2.50;;;3.00;99.90;;;;;;4972695;28;20485;-76
2022/02/17 00:30:50;;;;;;;5.03;2.47;;;2.80;99.90;;;;;;4973358;28;20388;-76
2022/02/17 00:33:16;;;;;;;7.22;2.85;;;2.70;99.90;;;;;;4972074;28;20479;-76
2022/02/17 00:35:41;;;;;;;3.88;2.55;;;2.70;99.90;;;;;;4971351;28;20567;-76
2022/02/17 00:38:07;;;;;;;5.45;2.40;;;2.60;99.90;;;;;;4967982;28;20240;-76
2022/02/17 00:40:32;;;;;;;5.03;2.35;;;2.50;99.90;;;;;;4971972;28;20055;-77
2022/02/17 00:42:58;;;;;;;4.82;2.30;;;2.50;99.90;;;;;;4973144;28;20070;-75
2022/02/17 00:45:24;;;;;;;5.70;2.60;;;2.50;99.90;;;;;;4971982;28;20042;-76
2022/02/17 00:47:50;;;;;;;5.55;2.83;;;2.70;99.90;;;;;;4972717;28;20535;-76
2022/02/17 00:50:16;;;;;;;4.32;2.47;;;2.80;99.90;;;;;;4971636;28;20075;-76
2022/02/17 00:52:42;;;;;;;5.20;2.30;;;2.60;99.90;;;;;;4966283;28;20126;-76
2022/02/17 00:55:08;;;;;;;5.13;2.33;;;2.60;99.90;;;;;;4966929;28;20109;-76
2022/02/17 00:57:33;;;;;;;4.80;2.53;;;2.50;99.90;;;;;;4972160;28;20185;-76
2022/02/17 00:59:59;;;;;;;5.25;2.67;;;2.50;99.90;;;;;;4968589;28;20521;-76
2022/02/17 01:02:25;;;;;;;8.88;3.28;;;2.50;99.90;;;;;;4972605;28;20075;-76
2022/02/17 01:04:50;;;;;;;6.47;2.42;;;2.50;99.90;;;;;;4968417;28;20456;-76
2022/02/17 01:07:16;;;;;;;7.00;3.15;;;2.50;99.90;;;;;;4972229;28;20042;-76
2022/02/17 01:09:42;;;;;;;5.60;3.17;;;2.60;99.90;;;;;;4971548;28;20039;-76
2022/02/17 01:12:09;;;;;;;5.85;2.97;;;2.60;99.90;;;;;;4972249;28;20038;-76
2022/02/17 01:14:34;;;;;;;5.00;2.60;;;2.60;99.90;;;;;;4971247;28;20034;-76
2022/02/17 01:17:00;;;;;;;5.05;2.83;;;2.60;99.90;;;;;;4971629;28;20109;-76
2022/02/17 01:19:26;;;;;;;6.57;3.47;;;2.50;99.90;;;;;;4970241;28;20034;-76
2022/02/17 01:21:52;;;;;;;6.50;3.15;;;2.40;99.90;;;;;;4969832;28;20449;-76
2022/02/17 01:24:18;;;;;;;5.68;3.40;;;2.50;99.90;;;;;;4971714;28;20117;-76
2022/02/17 01:26:43;;;;;;;5.93;3.35;;;2.60;99.90;;;;;;4971476;28;20712;-76
2022/02/17 01:29:09;;;;;;;6.32;3.00;;;2.70;99.90;;;;;;4971913;28;20066;-76
2022/02/17 01:31:35;;;;;;;6.97;3.65;;;2.70;99.90;;;;;;4970642;28;20027;-75
2022/02/17 01:34:01;;;;;;;6.22;2.88;;;2.60;99.90;;;;;;4971592;28;20037;-76
2022/02/17 01:36:27;;;;;;;7.75;3.25;;;2.50;99.90;;;;;;4970904;28;20108;-76
2022/02/17 01:38:52;;;;;;;5.75;2.92;;;2.50;99.90;;;;;;4971633;28;20105;-76
2022/02/17 01:41:18;;;;;;;5.25;2.90;;;2.60;99.90;;;;;;4964172;28;20062;-76
2022/02/17 01:43:50;;;;;;;5.93;2.90;;;2.40;99.90;;;;;;4971498;28;20038;-75
2022/02/17 01:46:16;;;;;;;5.30;2.95;;;2.50;99.90;;;;;;4971485;28;20118;-76
2022/02/17 01:48:42;;;;;;;6.30;3.13;;;2.60;99.90;;;;;;4966741;28;20043;-76
2022/02/17 01:51:08;;;;;;;6.68;3.40;;;2.60;99.90;;;;;;4965427;28;20061;-75
2022/02/17 01:53:34;;;;;;;5.30;2.60;;;2.60;99.90;;;;;;4969106;28;20748;-76
2022/02/17 01:56:01;;;;;;;6.60;3.03;;;2.60;99.90;;;;;;4971993;28;20046;-76
2022/02/17 01:58:28;;;;;;;6.72;3.65;;;2.70;99.90;;;;;;4971011;28;20030;-75
2022/02/17 02:00:54;;;;;;;7.47;3.15;;;2.60;99.90;;;;;;4969136;28;20193;-76
2022/02/17 02:03:20;;;;;;;7.25;4.05;;;2.50;99.90;;;;;;4968453;28;20133;-76
2022/02/17 02:05:45;;;;;;;5.70;3.03;;;2.50;99.90;;;;;;4971328;28;20476;-76
2022/02/17 02:08:11;;;;;;;5.88;3.47;;;2.50;99.90;;;;;;4970736;28;20046;-76
2022/02/17 02:10:38;;;;;;;24.27;12.95;;;2.70;99.90;;;;;;4971164;28;20093;-76
2022/02/17 02:13:03;;;;;;;6.65;4.43;;;2.90;99.90;;;;;;4966052;28;20038;-75
2022/02/17 02:15:52;;;;;;;15.65;8.75;;;2.80;99.90;;;;;;4971025;28;20034;-76
2022/02/17 02:18:19;;;;;;;6.85;3.28;;;2.70;99.90;;;;;;4970138;28;20129;-76
2022/02/17 02:20:50;;;;;;;6.93;4.43;;;2.60;99.90;;;;;;4969448;28;20366;-76
2022/02/17 02:23:16;;;;;;;8.23;4.20;;;2.60;99.90;;;;;;4968825;28;20123;-76
2022/02/17 02:25:45;;;;;;;6.50;3.67;;;2.70;99.90;;;;;;4967147;28;20570;-76
2022/02/17 02:28:15;;;;;;;7.90;3.63;;;2.80;99.90;;;;;;4970386;28;20060;-75
2022/02/17 02:30:41;;;;;;;8.93;3.95;;;2.70;99.90;;;;;;4968267;28;20042;-76
2022/02/17 02:33:06;;;;;;;6.00;4.05;;;2.70;99.90;;;;;;4969833;28;20034;-76
2022/02/17 02:35:32;;;;;;;7.00;3.80;;;2.60;99.90;;;;;;4970482;28;20089;-76
2022/02/17 02:37:58;;;;;;;7.88;5.03;;;2.50;99.90;;;;;;4969921;28;20070;-76
2022/02/17 02:40:24;;;;;;;21.20;13.13;;;2.40;99.90;;;;;;4970395;28;20050;-75
2022/02/17 02:42:49;;;;;;;6.95;3.85;;;2.30;99.90;;;;;;4970271;28;20033;-75
2022/02/17 02:45:15;;;;;;;8.05;4.03;;;2.20;99.90;;;;;;4968231;28;20042;-75
2022/02/17 02:47:41;;;;;;;6.90;4.10;;;2.30;99.90;;;;;;4969098;28;20614;-76
2022/02/17 02:50:06;;;;;;;7.93;3.95;;;2.30;99.90;;;;;;4970115;28;20041;-76
2022/02/17 02:52:32;;;;;;;7.75;3.83;;;2.10;99.90;;;;;;4967273;28;20019;-76
2022/02/17 02:54:58;;;;;;;6.70;3.60;;;2.10;99.90;;;;;;4966317;28;20034;-76
2022/02/17 02:57:25;;;;;;;6.85;4.20;;;2.10;99.90;;;;;;4970905;28;20050;-76
2022/02/17 02:59:51;;;;;;;6.53;3.85;;;2.20;99.90;;;;;;4969854;28;20118;-76
2022/02/17 03:02:16;;;;;;;5.85;3.53;;;2.30;99.90;;;;;;4969634;28;20117;-76
2022/02/17 03:04:42;;;;;;;7.43;4.40;;;2.30;99.90;;;;;;4970334;28;20026;-76
2022/02/17 03:07:08;;;;;;;7.68;4.63;;;2.30;99.90;;;;;;4970388;28;20485;-76
2022/02/17 03:09:33;;;;;;;7.68;4.88;;;2.40;99.90;;;;;;4968058;28;20039;-76
2022/02/17 03:11:59;;;;;;;5.47;3.40;;;2.40;99.90;;;;;;4971010;28;20057;-76
2022/02/17 03:14:25;;;;;;;7.75;4.13;;;2.30;99.90;;;;;;4975662;28;20503;-76
2022/02/17 03:16:50;;;;;;;10.52;3.65;;;2.20;99.90;;;;;;4977266;28;20034;-76
2022/02/17 03:19:16;;;;;;;9.25;4.40;;;2.10;99.90;;;;;;4973163;28;20030;-76
2022/02/17 03:21:41;;;;;;;6.63;4.15;;;2.10;99.90;;;;;;4975882;28;20035;-75
2022/02/17 03:24:07;;;;;;;7.50;4.22;;;2.10;99.90;;;;;;4969383;28;20037;-75
2022/02/17 03:26:33;;;;;;;6.60;4.00;;;2.20;99.90;;;;;;4976019;28;20062;-76
2022/02/17 03:28:59;;;;;;;8.20;4.97;;;2.20;99.90;;;;;;4972313;28;20037;-76
2022/02/17 03:31:24;;;;;;;7.57;4.38;;;2.10;99.90;;;;;;4975951;28;20030;-75
2022/02/17 03:33:50;;;;;;;7.05;4.38;;;2.10;99.90;;;;;;4976074;28;20074;-75
2022/02/17 03:36:16;;;;;;;8.45;4.75;;;2.20;99.90;;;;;;4976785;28;20043;-76
2022/02/17 03:38:41;;;;;;;7.68;4.35;;;2.30;99.90;;;;;;4976568;28;20509;-76
2022/02/17 03:41:07;;;;;;;7.93;4.40;;;2.10;99.90;;;;;;4976846;28;20472;-76
2022/02/17 03:43:33;;;;;;;7.22;4.38;;;2.10;99.90;;;;;;4972460;28;20022;-76
2022/02/17 03:45:58;;;;;;;7.78;4.45;;;2.10;99.90;;;;;;4976828;28;20057;-76
2022/02/17 03:48:24;;;;;;;9.43;4.43;;;2.10;99.90;;;;;;4975597;28;20038;-75
2022/02/17 03:50:49;;;;;;;8.38;4.82;;;2.30;99.90;;;;;;4976643;28;20059;-75
2022/02/17 03:53:15;;;;;;;6.75;4.03;;;2.20;99.90;;;;;;4975849;28;20066;-75
2022/02/17 03:55:41;;;;;;;7.55;4.10;;;2.10;99.90;;;;;;4976590;28;20030;-75
2022/02/17 03:58:06;;;;;;;6.22;4.13;;;2.10;99.90;;;;;;4975497;28;20042;-75
2022/02/17 04:00:33;;;;;;;6.25;4.22;;;2.00;99.90;;;;;;4976643;28;20035;-74
2022/02/17 04:03:02;;;;;;;7.13;3.95;;;1.90;99.90;;;;;;4970167;28;20617;-75
2022/02/17 04:05:27;;;;;;;10.32;3.72;;;1.90;99.90;;;;;;4969972;28;20041;-75
2022/02/17 04:07:53;;;;;;;6.63;3.80;;;1.70;99.90;;;;;;4962495;28;20038;-75
2022/02/17 04:10:18;;;;;;;8.05;4.75;;;1.60;99.90;;;;;;4964863;28;20046;-75
2022/02/17 04:12:44;;;;;;;8.73;5.18;;;1.70;99.90;;;;;;4964230;28;20035;-75
2022/02/17 04:15:11;;;;;;;6.85;3.80;;;1.80;99.90;;;;;;4961218;28;20042;-75
2022/02/17 04:17:37;;;;;;;7.13;3.55;;;1.70;99.90;;;;;;4961556;28;20030;-75
2022/02/17 04:20:03;;;;;;;10.45;4.63;;;1.70;99.90;;;;;;4964886;28;20050;-75
2022/02/17 04:22:29;;;;;;;8.93;5.63;;;1.70;99.90;;;;;;4960204;28;20077;-75
2022/02/17 04:24:54;;;;;;;8.63;4.95;;;1.70;99.90;;;;;;4953300;28;20035;-74
2022/02/17 04:27:20;;;;;;;8.63;4.22;;;1.80;99.90;;;;;;4956999;28;20880;-75
2022/02/17 04:29:46;;;;;;;9.25;4.65;;;1.70;99.90;;;;;;4964956;28;20050;-74
2022/02/17 04:32:11;;;;;;;8.07;5.05;;;1.70;99.90;;;;;;4968687;28;20586;-75
2022/02/17 04:34:37;;;;;;;7.70;5.05;;;1.60;99.90;;;;;;4964624;28;20028;-74
2022/02/17 04:37:03;;;;;;;7.30;4.50;;;1.50;99.90;;;;;;4968068;28;20035;-74
2022/02/17 04:39:28;;;;;;;8.20;5.07;;;1.70;99.90;;;;;;4968752;28;20489;-74
2022/02/17 04:44:38;;;;;;;7.72;4.43;;;1.80;99.90;;;;;;4967019;28;20069;-75
2022/02/17 04:47:04;;;;;;;7.68;4.18;;;1.70;99.90;;;;;;4968278;28;20537;-74
2022/02/17 04:49:30;;;;;;;7.93;4.55;;;1.60;99.90;;;;;;4968453;28;20138;-74
2022/02/17 04:51:55;;;;;;;6.47;4.40;;;1.70;99.90;;;;;;4962617;28;20041;-74
2022/02/17 04:54:21;;;;;;;7.25;4.10;;;1.90;99.90;;;;;;4968445;28;20484;-75
2022/02/17 04:56:47;;;;;;;9.07;4.65;;;1.80;99.90;;;;;;4969024;28;20599;-75
2022/02/17 04:59:13;;;;;;;6.88;4.18;;;1.60;99.90;;;;;;4966504;28;20042;-75
2022/02/17 05:01:38;;;;;;;9.05;5.15;;;1.50;99.90;;;;;;4964708;28;20062;-74
2022/02/17 05:04:04;;;;;;;8.80;5.40;;;1.40;99.90;;;;;;4965770;28;20895;-74
2022/02/17 05:06:30;;;;;;;9.52;3.92;;;1.40;99.90;;;;;;4965453;28;20043;-74
2022/02/17 05:08:55;;;;;;;9.68;4.72;;;1.50;99.90;;;;;;4965710;28;20038;-74
2022/02/17 05:11:21;;;;;;;7.95;5.45;;;1.70;99.90;;;;;;4964790;28;20034;-74
2022/02/17 05:13:47;;;;;;;10.25;5.25;;;1.70;99.90;;;;;;4966027;28;20035;-74
2022/02/17 05:16:12;;;;;;;8.48;5.43;;;1.60;99.90;;;;;;4965198;28;20039;-74
2022/02/17 05:18:38;;;;;;;8.48;5.07;;;1.60;99.90;;;;;;4965484;28;20426;-74
2022/02/17 05:21:04;;;;;;;10.50;5.18;;;1.70;99.90;;;;;;4963576;28;20044;-74
2022/02/17 05:23:30;;;;;;;10.93;7.13;;;1.80;99.90;;;;;;4964221;28;20027;-74
2022/02/17 05:25:55;;;;;;;8.90;5.65;;;1.80;99.90;;;;;;4964170;28;20100;-74
2022/02/17 05:28:21;;;;;;;8.48;5.65;;;1.60;99.90;;;;;;4963510;28;20162;-74
2022/02/17 05:30:47;;;;;;;9.20;5.53;;;1.70;99.90;;;;;;4961166;28;20023;-74
2022/02/17 05:33:14;;;;;;;10.30;5.85;;;1.70;99.90;;;;;;4955415;28;20084;-74
2022/02/17 05:35:41;;;;;;;8.77;4.80;;;1.50;99.90;;;;;;4953701;28;20105;-74
2022/02/17 05:38:07;;;;;;;10.93;5.30;;;1.30;99.90;;;;;;4957134;28;20664;-74
2022/02/17 05:40:33;;;;;;;11.65;5.95;;;1.30;99.90;;;;;;4956189;28;20130;-74
2022/02/17 05:42:59;;;;;;;11.35;5.70;;;1.30;99.90;;;;;;4956628;28;20062;-74
2022/02/17 05:45:28;;;;;;;9.60;5.30;;;1.20;99.90;;;;;;4958374;28;20109;-73
2022/02/17 05:47:56;;;;;;;8.38;5.40;;;1.30;99.90;;;;;;4959327;28;20039;-74
2022/02/17 05:50:22;;;;;;;8.05;5.47;;;1.30;99.90;;;;;;4953322;28;20039;-74
2022/02/17 05:52:48;;;;;;;7.25;4.70;;;1.30;99.90;;;;;;4960886;28;20035;-74
2022/02/17 05:55:15;;;;;;;8.07;5.13;;;1.30;99.90;;;;;;4963197;28;20109;-74
2022/02/17 05:57:41;;;;;;;8.15;4.95;;;1.10;99.90;;;;;;4964827;28;20543;-74
2022/02/17 06:00:08;;;;;;;9.60;5.18;;;1.20;99.90;;;;;;4964124;28;20031;-74
2022/02/17 06:02:34;;;;;;;8.68;4.28;;;1.20;99.90;;;;;;4964039;28;20137;-74
2022/02/17 06:04:59;;;;;;;8.10;4.53;;;1.20;99.90;;;;;;4964072;28;20117;-74
2022/02/17 06:07:25;;;;;;;7.60;4.50;;;1.20;99.90;;;;;;4964448;28;20073;-74
2022/02/17 06:09:51;;;;;;;9.10;4.68;;;1.30;99.90;;;;;;4964499;28;20038;-74
2022/02/17 06:12:16;;;;;;;8.40;4.68;;;1.40;99.90;;;;;;4964822;28;20448;-74
2022/02/17 06:14:43;;;;;;;8.90;4.82;;;1.40;99.90;;;;;;4964116;28;20584;-74
2022/02/17 06:17:08;;;;;;;9.48;4.95;;;1.40;99.90;;;;;;4964582;28;20133;-74
2022/02/17 06:19:34;;;;;;;8.35;5.43;;;1.50;99.90;;;;;;4964022;28;20614;-73
2022/02/17 06:22:00;;;;;;;12.13;6.82;;;1.50;99.90;;;;;;4959711;28;20039;-73
2022/02/17 06:24:25;;;;;;;10.80;6.00;;;1.40;99.90;;;;;;4964161;28;20101;-74
2022/02/17 06:26:51;;;;;;;7.88;5.22;;;1.50;99.90;;;;;;4966814;28;20098;-78
2022/02/17 06:29:17;;;;;;;8.07;4.60;;;1.50;99.90;;;;;;4963244;28;20045;-77
2022/02/17 06:31:44;;;;;;;7.78;4.60;;;1.50;99.90;;;;;;4950921;28;20121;-75
2022/02/17 06:34:10;;;;;;;8.40;4.93;;;1.80;99.90;;;;;;4955600;28;20026;-75
2022/02/17 06:36:36;;;;;;;9.88;5.03;;;1.90;99.90;;;;;;4959062;28;20034;-75
2022/02/17 06:39:02;;;;;;;8.23;4.40;;;1.90;99.90;;;;;;4964042;28;20053;-72
2022/02/17 06:41:28;;;;;;;8.35;5.22;;;1.70;99.90;;;;;;4964261;28;20132;-72
2022/02/17 06:43:53;;;;;;;9.73;5.70;;;1.70;99.90;;;;;;4964613;28;20442;-72
2022/02/17 06:46:19;;;;;;;7.47;4.43;;;1.80;99.90;;;;;;4964026;28;20035;-72
2022/02/17 06:48:45;;;;;;;7.55;4.30;;;1.70;99.90;;;;;;4964206;28;20137;-72
2022/02/17 06:51:12;;;;;;;7.55;4.45;;;1.70;99.90;;;;;;4964327;28;20031;-72
2022/02/17 06:53:38;;;;;;;7.57;4.45;;;1.70;99.90;;;;;;4963944;28;20169;-72
2022/02/17 06:56:04;;;;;;;7.45;4.38;;;1.60;99.90;;;;;;4963776;28;20043;-72
2022/02/17 06:58:31;;;;;;;7.78;4.00;;;1.60;99.90;;;;;;4961631;28;20039;-73
2022/02/17 07:00:57;;;;;;;6.40;4.40;;;1.50;99.90;;;;;;4963798;28;20072;-73
2022/02/17 07:03:23;;;;;;;7.07;4.28;;;1.60;99.90;;;;;;4963839;28;20134;-73
2022/02/17 07:05:48;;;;;;;7.65;4.55;;;1.60;99.90;;;;;;4963301;28;20042;-72
2022/02/17 07:08:14;;;;;;;7.40;4.28;;;1.60;99.90;;;;;;4961928;28;20109;-72
2022/02/17 07:10:55;;;;;;;8.50;4.50;;;1.60;99.90;;;;;;4954279;28;20496;-73
2022/02/17 07:13:25;;;;;;;6.93;4.38;;;1.60;99.90;;;;;;4956571;28;20031;-73
2022/02/17 07:15:51;;;;;;;7.45;4.28;;;1.60;99.90;;;;;;4957858;28;20031;-72
2022/02/17 07:18:19;;;;;;;7.90;4.20;;;1.70;99.90;;;;;;4963004;28;20123;-72
2022/02/17 07:20:46;;;;;;;8.95;5.00;;;1.60;99.90;;;;;;4963592;28;20121;-73
2022/02/17 07:23:16;;;;;;;7.93;4.13;;;1.50;99.90;;;;;;4963628;28;20042;-73
2022/02/17 07:25:43;;;;;;;7.18;4.57;;;1.50;99.90;;;;;;4960657;28;20031;-72
2022/02/17 07:28:09;;;;;;;7.53;4.68;;;1.60;99.90;;;;;;4963476;28;20035;-72
2022/02/17 07:30:35;;;;;;;8.32;4.57;;;1.70;99.90;;;;;;4963668;28;20657;-73
2022/02/17 07:33:02;;;;;;;7.10;4.30;;;1.70;99.90;;;;;;4966440;28;20030;-72
2022/02/17 07:35:28;;;;;;;6.65;4.07;;;1.80;99.90;;;;;;4965983;28;20063;-72
2022/02/17 07:37:54;;;;;;;9.07;4.30;;;1.80;99.90;;;;;;4966042;28;20468;-72
2022/02/17 07:40:21;;;;;;;6.78;3.63;;;1.90;99.90;;;;;;4965807;28;20047;-72
2022/02/17 07:42:47;;;;;;;7.22;4.13;;;1.80;99.90;;;;;;4964817;28;20588;-72
2022/02/17 07:45:13;;;;;;;8.30;4.35;;;1.90;99.90;;;;;;4965243;28;20031;-72
2022/02/17 07:47:44;;;;;;;7.15;4.18;;;2.00;99.90;;;;;;4966711;28;20050;-72
2022/02/17 07:50:11;;;;;;;8.18;5.00;;;2.00;99.90;;;;;;4966315;28;20049;-72
2022/02/17 07:52:37;;;;;;;7.55;3.95;;;2.00;99.90;;;;;;4966231;28;20096;-73
2022/02/17 07:55:03;;;;;;;7.22;3.85;;;2.00;99.90;;;;;;4966438;28;20042;-72
2022/02/17 07:57:29;;;;;;;6.13;3.92;;;2.10;99.90;;;;;;4966772;28;20041;-72
2022/02/17 07:59:55;;;;;;;7.65;4.43;;;2.10;99.90;;;;;;4968312;28;20113;-73
2022/02/17 08:02:20;;;;;;;5.55;3.63;;;2.20;99.90;;;;;;4969650;28;20038;-72
2022/02/17 08:04:46;;;;;;;5.85;3.60;;;2.10;99.90;;;;;;4969871;28;20038;-73
2022/02/17 08:07:11;;;;;;;8.40;4.28;;;2.10;99.90;;;;;;4968511;28;20041;-73
2022/02/17 08:09:38;;;;;;;8.82;5.53;;;2.00;99.90;;;;;;4970354;28;20043;-72
2022/02/17 08:12:04;;;;;;;6.15;4.07;;;2.00;99.90;;;;;;4970554;28;20039;-75
2022/02/17 08:14:30;;;;;;;6.97;4.38;;;2.00;99.90;;;;;;4965598;28;20035;-72
2022/02/17 08:16:55;;;;;;;5.97;3.88;;;2.00;99.90;;;;;;4964868;28;20047;-71
2022/02/17 08:19:21;;;;;;;7.13;4.28;;;1.90;99.90;;;;;;4966774;28;20033;-72
2022/02/17 08:21:47;;;;;;;8.77;4.90;;;2.00;99.90;;;;;;4966440;28;20039;-71
2022/02/17 08:24:13;;;;;;;7.80;4.10;;;2.00;99.90;;;;;;4964478;28;20125;-72
2022/02/17 08:26:41;;;;;;;5.65;3.47;;;2.00;99.90;;;;;;4966524;28;20031;-71
2022/02/17 08:29:08;;;;;;;6.63;4.15;;;1.90;99.90;;;;;;4966691;28;20043;-71
2022/02/17 08:31:34;;;;;;;6.85;4.60;;;1.90;99.90;;;;;;4965597;28;20046;-71
2022/02/17 08:34:03;;;;;;;6.50;3.95;;;1.80;99.90;;;;;;4964391;28;20035;-71
2022/02/17 08:36:29;;;;;;;8.57;4.75;;;1.80;99.90;;;;;;4958190;28;20081;-71
2022/02/17 08:38:55;;;;;;;12.57;5.32;;;1.90;99.90;;;;;;4956251;28;20051;-71
2022/02/17 08:41:21;;;;;;;7.45;4.45;;;1.90;99.90;;;;;;4960968;28;20060;-72
2022/02/17 08:43:47;;;;;;;9.32;6.07;;;2.00;99.90;;;;;;4965769;28;20070;-72
2022/02/17 08:46:14;;;;;;;5.07;3.00;;;2.10;99.90;;;;;;4964527;28;20410;-72
2022/02/17 08:48:40;;;;;;;10.57;7.00;;;2.50;99.90;;;;;;4966208;28;20113;-71
2022/02/17 08:51:06;;;;;;;9.73;6.45;;;2.60;99.90;;;;;;4966292;28;20497;-71
2022/02/17 08:53:32;;;;;;;10.98;5.75;;;2.60;99.90;;;;;;4965859;28;20045;-71
2022/02/17 08:55:58;;;;;;;9.40;6.25;;;2.40;99.90;;;;;;4965488;28;20125;-72
2022/02/17 08:58:23;;;;;;;9.98;6.10;;;2.40;99.90;;;;;;4963296;28;20058;-71
2022/02/17 09:00:50;;;;;;;10.40;6.30;;;2.30;99.90;;;;;;4966081;28;20420;-71
2022/02/17 09:03:15;;;;;;;9.00;6.45;;;2.40;99.90;;;;;;4960846;28;20022;-71
2022/02/17 09:05:41;;;;;;;9.88;6.82;;;2.30;99.90;;;;;;4967805;28;20105;-71
2022/02/17 09:08:09;;;;;;;7.38;4.63;;;2.60;99.90;;;;;;4966039;28;20038;-71
2022/02/17 09:10:39;;;;;;;8.45;4.55;;;3.10;99.90;;;;;;4967567;28;20066;-71
2022/02/17 09:13:05;;;;;;;17.02;10.90;;;3.10;99.90;;;;;;4968451;28;20042;-71
2022/02/17 09:15:31;;;;;;;8.88;5.43;;;3.20;99.90;;;;;;4968205;28;20039;-71
2022/02/17 09:17:56;;;;;;;10.20;4.70;;;3.20;99.90;;;;;;4965803;28;20045;-71
2022/02/17 09:20:22;;;;;;;7.78;3.75;;;3.20;99.90;;;;;;4968056;28;20054;-71
2022/02/17 09:22:48;;;;;;;6.45;3.85;;;3.30;99.90;;;;;;4968310;28;20037;-71
2022/02/17 09:25:13;;;;;;;6.57;3.83;;;3.50;99.90;;;;;;4967221;28;20409;-71
2022/02/17 09:27:39;;;;;;;8.27;5.03;;;3.50;99.90;;;;;;4968018;28;20034;-71
2022/02/17 09:30:07;;;;;;;9.40;6.55;;;3.50;99.90;;;;;;4967041;28;20073;-71
2022/02/17 09:32:33;;;;;;;9.18;5.03;;;3.40;99.90;;;;;;4967398;28;20035;-71
2022/02/17 09:34:59;;;;;;;10.48;5.80;;;3.40;99.90;;;;;;4968180;28;20444;-71
2022/02/17 09:37:26;;;;;;;12.73;7.07;;;3.30;99.90;;;;;;4967296;28;20050;-71
2022/02/17 09:39:52;;;;;;;11.10;8.10;;;3.10;99.90;;;;;;4965672;28;20062;-71
2022/02/17 09:42:19;;;;;;;9.63;6.25;;;3.20;99.90;;;;;;4949348;28;20070;-71
2022/02/17 09:44:45;;;;;;;10.80;6.50;;;3.30;99.90;;;;;;4966869;28;20030;-75
2022/02/17 09:47:11;;;;;;;8.95;6.05;;;3.30;99.90;;;;;;4968239;28;20091;-72
2022/02/17 09:49:40;;;;;;;10.52;5.85;;;3.40;99.90;;;;;;4967503;28;20046;-73
2022/02/17 09:52:08;;;;;;;10.10;6.45;;;3.50;99.90;;;;;;4966926;28;20039;-73
2022/02/17 09:54:35;;;;;;;10.30;7.22;;;3.50;99.90;;;;;;4967126;28;20102;-73
2022/02/17 09:57:01;;;;;;;13.95;7.35;;;3.50;99.90;;;;;;4967552;28;20038;-73
2022/02/17 09:59:28;;;;;;;8.93;6.45;;;3.60;99.90;;;;;;4967742;28;20034;-73
2022/02/17 10:01:58;;;;;;;9.77;7.57;;;3.70;99.90;;;;;;4967106;28;20524;-73
2022/02/17 10:04:28;;;;;;;12.45;7.72;;;3.80;99.90;;;;;;4967022;28;20583;-73
2022/02/17 10:06:57;;;;;;;14.38;8.68;;;3.90;99.90;;;;;;4966898;28;20171;-73
2022/02/17 10:09:38;;;;;;;11.10;7.30;;;4.10;99.90;;;;;;4966687;28;20043;-73
2022/02/17 10:12:05;;;;;;;14.45;10.93;;;4.10;99.90;;;;;;4967019;28;20030;-73
2022/02/17 10:14:31;;;;;;;10.07;7.63;;;4.20;99.90;;;;;;4967181;28;20035;-73
2022/02/17 10:17:03;;;;;;;11.98;7.95;;;4.20;99.90;;;;;;4966690;28;20576;-73
2022/02/17 10:19:39;;;;;;;7.10;5.13;;;4.30;99.90;;;;;;4966020;28;20034;-73
2022/02/17 10:22:13;;;;;;;8.75;6.20;;;4.40;99.90;;;;;;4966191;28;20031;-74
2022/02/17 10:24:53;;;;;;;8.50;5.00;;;4.40;99.90;;;;;;4965802;28;20039;-74
2022/02/17 10:27:29;;;;;;;7.85;4.97;;;4.40;99.90;;;;;;4967422;28;20113;-73
2022/02/17 10:30:07;;;;;;;7.38;5.38;;;4.40;99.90;;;;;;4958120;28;20102;-73
2022/02/17 10:32:32;;;;;;;8.10;6.70;;;4.50;99.90;;;;;;4967279;28;20191;-74
2022/02/17 10:35:14;;;;;;;8.82;6.20;;;4.60;99.90;;;;;;4965775;28;20393;-74
2022/02/17 10:37:49;;;;;;;6.90;4.97;;;4.60;99.90;;;;;;4965706;28;20043;-74
2022/02/17 10:40:17;;;;;;;9.02;4.85;;;4.70;99.90;;;;;;4966175;28;20051;-74
2022/02/17 10:42:42;;;;;;;9.70;5.55;;;4.70;99.90;;;;;;4966914;28;20064;-74
2022/02/17 10:45:24;;;;;;;11.40;5.72;;;4.80;99.90;;;;;;4966198;28;20477;-74
2022/02/17 10:47:49;;;;;;;9.52;5.53;;;5.10;99.90;;;;;;4966811;28;20041;-74
2022/02/17 10:50:19;;;;;;;10.07;6.05;;;5.10;99.90;;;;;;4966251;28;20427;-74
2022/02/17 10:52:46;;;;;;;8.73;5.70;;;5.10;99.90;;;;;;4965945;28;20035;-74
2022/02/17 10:55:17;;;;;;;10.50;6.38;;;5.10;99.90;;;;;;4951683;28;20595;-74
2022/02/17 10:57:44;;;;;;;9.43;6.82;;;5.20;99.90;;;;;;4966420;28;20022;-74
2022/02/17 11:00:21;;;;;;;10.70;6.85;;;5.20;99.90;;;;;;4966575;28;20027;-74
2022/02/17 11:02:49;;;;;;;9.85;6.38;;;5.30;99.90;;;;;;4966974;28;20035;-74
2022/02/17 11:05:16;;;;;;;9.23;6.15;;;5.40;99.90;;;;;;4966376;28;20066;-74
2022/02/17 11:07:44;;;;;;;8.68;5.70;;;5.60;99.90;;;;;;4967088;28;20544;-74
2022/02/17 11:10:11;;;;;;;9.15;5.55;;;5.70;99.90;;;;;;4963882;28;20043;-74
2022/02/17 11:12:38;;;;;;;9.02;5.57;;;5.90;99.90;;;;;;4959610;28;20157;-74
2022/02/17 11:15:05;;;;;;;8.63;5.50;;;5.90;99.90;;;;;;4958343;28;20113;-74
2022/02/17 11:17:39;;;;;;;7.30;5.00;;;5.90;99.90;;;;;;4959690;28;20165;-74
2022/02/17 11:20:17;;;;;;;6.25;3.45;;;6.00;99.90;;;;;;4961259;28;20034;-75
2022/02/17 11:22:47;;;;;;;7.90;4.57;;;6.10;99.90;;;;;;4967349;28;20037;-75
2022/02/17 11:25:13;;;;;;;7.97;5.00;;;6.10;99.70;;;;;;4965991;28;20034;-75
2022/02/17 11:28:03;;;;;;;9.00;5.75;;;6.10;99.40;;;;;;4966478;28;20110;-76
2022/02/17 11:30:30;;;;;;;9.57;5.75;;;6.40;99.80;;;;;;4956336;28;20038;-75
2022/02/17 11:33:23;;;;;;;9.27;5.97;;;6.40;99.80;;;;;;4967767;28;20083;-75
2022/02/17 11:35:50;;;;;;;9.48;6.05;;;6.60;99.90;;;;;;4970880;28;20081;-75
2022/02/17 11:38:30;;;;;;;9.80;5.90;;;7.10;99.50;;;;;;4970027;28;20037;-75
2022/02/17 11:41:18;;;;;;;7.95;5.30;;;6.80;99.20;;;;;;4968576;28;20125;-75
2022/02/17 11:43:46;;;;;;;9.88;6.20;;;6.70;99.60;;;;;;4969079;28;20066;-75
2022/02/17 11:46:14;;;;;;;9.70;5.78;;;6.70;99.40;;;;;;4970029;28;20758;-75
2022/02/17 11:48:45;;;;;;;8.90;5.80;;;6.80;99.20;;;;;;4969703;28;20624;-75
2022/02/17 11:51:10;;;;;;;8.65;5.28;;;7.00;99.50;;;;;;4966753;28;20039;-76
2022/02/17 11:53:38;;;;;;;7.78;5.40;;;7.10;98.90;;;;;;4969728;28;20086;-75
2022/02/17 11:56:07;;;;;;;8.50;6.00;;;7.20;98.90;;;;;;4969634;28;20034;-75
2022/02/17 11:58:45;;;;;;;8.77;5.57;;;7.20;98.40;;;;;;4970203;28;20420;-75
2022/02/17 12:03:57;;;;;;;9.65;5.70;;;7.30;97.90;;;;;;4969108;28;20038;-76
2022/02/17 12:06:33;;;;;;;9.05;4.95;;;7.30;98.40;;;;;;4969868;28;20081;-76
2022/02/17 12:08:58;;;;;;;10.73;5.43;;;7.60;98.30;;;;;;4969614;28;20043;-75
2022/02/17 12:11:42;;;;;;;7.45;5.00;;;7.60;98.10;;;;;;4969758;28;20041;-75
2022/02/17 12:14:08;;;;;;;7.57;5.03;;;7.70;97.60;;;;;;4966295;28;20031;-76
2022/02/17 12:16:36;;;;;;;10.80;5.93;;;7.60;97.90;;;;;;4969533;28;20038;-76
2022/02/17 12:19:11;;;;;;;8.43;5.57;;;7.60;97.40;;;;;;4969923;28;20031;-76
2022/02/17 12:21:39;;;;;;;8.15;5.13;;;7.70;98.10;;;;;;4969371;28;20347;-76
2022/02/17 12:24:07;;;;;;;8.93;5.00;;;7.80;97.60;;;;;;4969025;28;20038;-76
2022/02/17 12:26:39;;;;;;;6.93;4.53;;;7.90;97.30;;;;;;4961960;28;20062;-76
2022/02/17 12:29:21;;;;;;;8.88;5.65;;;7.80;96.70;;;;;;4969179;28;20119;-76
2022/02/17 12:31:48;;;;;;;8.32;4.97;;;7.90;97.70;;;;;;4968902;28;20462;-76
2022/02/17 12:34:15;;;;;;;9.00;4.85;;;7.90;96.70;;;;;;4983705;28;20442;-76
2022/02/17 12:36:41;;;;;;;7.70;5.40;;;7.90;96.30;;;;;;4969319;28;20067;-76
2022/02/17 12:39:07;;;;;;;13.30;5.88;;;8.10;97.30;;;;;;4969107;28;20047;-76
2022/02/17 12:41:34;;;;;;;8.10;4.60;;;8.20;97.30;;;;;;4969027;28;20477;-76
2022/02/17 12:43:59;;;;;;;9.32;5.55;;;8.30;96.70;;;;;;4969400;28;20436;-76
2022/02/17 12:46:26;;;;;;;9.23;4.32;;;8.50;97.20;;;;;;4968741;28;20041;-76
2022/02/17 12:48:51;;;;;;;9.88;4.53;;;8.60;96.00;;;;;;4968967;28;20054;-76
2022/02/17 12:51:31;;;;;;;9.63;4.82;;;8.50;96.00;;;;;;4969130;28;20030;-76
2022/02/17 12:53:57;;;;;;;6.60;4.45;;;8.50;96.00;;;;;;4969139;28;20062;-76
2022/02/17 12:56:24;;;;;;;9.10;4.63;;;8.70;96.50;;;;;;4969401;28;20034;-76
2022/02/17 12:58:50;;;;;;;10.75;4.70;;;8.70;95.80;;;;;;4968844;28;20053;-75
2022/02/17 13:01:26;;;;;;;8.80;4.82;;;8.70;96.30;;;;;;4969078;28;20050;-76